sensor_id;sensor_type;location;lat;lon;timestamp;temperature;humidity
47618;DHT22;33336;36.728;-4.414;2023-06-24T00:01:20;26.20;99.90
47618;DHT22;33336;36.728;-4.414;2023-06-24T00:06:25;26.60;99.90
47618;DHT22;33336;36.728;-4.414;2023-06-24T00:11:29;26.50;99.90
47618;DHT22;33336;36.728;-4.414;2023-06-24T00:16:32;26.80;99.90
47618;DHT22;33336;36.728;-4.414;2023-06-24T00:21:37;27.20;99.90
47618;DHT22;33336;36.728;-4.414;2023-06-24T00:26:41;27.50;99.30
47618;DHT22;33336;36.728;-4.414;2023-06-24T00:31:44;27.20;99.60
47618;DHT22;33336;36.728;-4.414;2023-06-24T00:36:48;27.40;99.20
47618;DHT22;33336;36.728;-4.414;2023-06-24T00:41:52;27.30;99.30
47618;DHT22;33336;36.728;-4.414;2023-06-24T00:46:55;27.30;99.30
47618;DHT22;33336;36.728;-4.414;2023-06-24T00:52:00;27.40;99.00
47618;DHT22;33336;36.728;-4.414;2023-06-24T00:57:03;27.50;98.90
47618;DHT22;33336;36.728;-4.414;2023-06-24T01:02:06;27.40;99.10
47618;DHT22;33336;36.728;-4.414;2023-06-24T01:07:11;27.30;99.00
47618;DHT22;33336;36.728;-4.414;2023-06-24T01:12:15;27.40;98.90
47618;DHT22;33336;36.728;-4.414;2023-06-24T01:17:22;27.30;98.90
47618;DHT22;33336;36.728;-4.414;2023-06-24T01:28:21;27.20;99.00
47618;DHT22;33336;36.728;-4.414;2023-06-24T01:33:38;27.10;99.00
47618;DHT22;33336;36.728;-4.414;2023-06-24T01:38:46;27.10;99.00
47618;DHT22;33336;36.728;-4.414;2023-06-24T01:43:52;27.10;99.00
47618;DHT22;33336;36.728;-4.414;2023-06-24T01:49:01;26.70;99.40
47618;DHT22;33336;36.728;-4.414;2023-06-24T01:54:11;26.90;99.10
47618;DHT22;33336;36.728;-4.414;2023-06-24T01:59:16;26.70;99.10
47618;DHT22;33336;36.728;-4.414;2023-06-24T02:04:21;26.50;99.60
47618;DHT22;33336;36.728;-4.414;2023-06-24T02:09:26;26.60;99.40
47618;DHT22;33336;36.728;-4.414;2023-06-24T02:14:32;26.70;99.20
47618;DHT22;33336;36.728;-4.414;2023-06-24T02:19:39;25.70;99.90
47618;DHT22;33336;36.728;-4.414;2023-06-24T02:24:45;26.10;99.90
47618;DHT22;33336;36.728;-4.414;2023-06-24T02:29:48;26.20;99.90
47618;DHT22;33336;36.728;-4.414;2023-06-24T02:34:54;25.90;99.90
47618;DHT22;33336;36.728;-4.414;2023-06-24T02:39:57;26.10;99.90
47618;DHT22;33336;36.728;-4.414;2023-06-24T02:45:01;26.30;99.90
47618;DHT22;33336;36.728;-4.414;2023-06-24T02:50:08;26.30;99.90
47618;DHT22;33336;36.728;-4.414;2023-06-24T02:55:11;26.40;99.90
47618;DHT22;33336;36.728;-4.414;2023-06-24T03:00:16;25.70;99.90
47618;DHT22;33336;36.728;-4.414;2023-06-24T03:05:21;25.60;99.90
47618;DHT22;33336;36.728;-4.414;2023-06-24T03:10:26;26.10;99.90
47618;DHT22;33336;36.728;-4.414;2023-06-24T03:15:30;26.10;99.90
47618;DHT22;33336;36.728;-4.414;2023-06-24T03:20:34;26.40;99.90
47618;DHT22;33336;36.728;-4.414;2023-06-24T03:25:40;26.30;99.90
47618;DHT22;33336;36.728;-4.414;2023-06-24T03:30:43;26.30;99.90
47618;DHT22;33336;36.728;-4.414;2023-06-24T03:35:48;25.80;99.90
47618;DHT22;33336;36.728;-4.414;2023-06-24T03:40:50;25.70;99.90
47618;DHT22;33336;36.728;-4.414;2023-06-24T03:45:53;25.70;99.90
47618;DHT22;33336;36.728;-4.414;2023-06-24T03:50:57;25.50;99.90
47618;DHT22;33336;36.728;-4.414;2023-06-24T03:56:00;25.50;99.90
47618;DHT22;33336;36.728;-4.414;2023-06-24T04:01:03;25.70;99.90
47618;DHT22;33336;36.728;-4.414;2023-06-24T04:06:08;25.60;99.90
47618;DHT22;33336;36.728;-4.414;2023-06-24T04:11:10;25.40;99.90
47618;DHT22;33336;36.728;-4.414;2023-06-24T04:16:14;25.10;99.90
47618;DHT22;33336;36.728;-4.414;2023-06-24T04:21:18;25.20;99.90
47618;DHT22;33336;36.728;-4.414;2023-06-24T04:26:21;25.60;99.90
47618;DHT22;33336;36.728;-4.414;2023-06-24T04:31:24;25.70;99.90
47618;DHT22;33336;36.728;-4.414;2023-06-24T04:36:30;24.70;99.90
47618;DHT22;33336;36.728;-4.414;2023-06-24T04:41:32;24.80;99.90
47618;DHT22;33336;36.728;-4.414;2023-06-24T04:46:36;24.80;99.90
47618;DHT22;33336;36.728;-4.414;2023-06-24T04:51:42;24.50;99.90
47618;DHT22;33336;36.728;-4.414;2023-06-24T04:56:46;24.80;99.90
47618;DHT22;33336;36.728;-4.414;2023-06-24T05:01:51;25.20;99.90
47618;DHT22;33336;36.728;-4.414;2023-06-24T05:06:56;24.60;99.90
47618;DHT22;33336;36.728;-4.414;2023-06-24T05:11:58;25.10;99.90
47618;DHT22;33336;36.728;-4.414;2023-06-24T05:17:03;25.20;99.90
47618;DHT22;33336;36.728;-4.414;2023-06-24T05:22:07;24.80;99.90
47618;DHT22;33336;36.728;-4.414;2023-06-24T05:27:10;24.70;99.90
47618;DHT22;33336;36.728;-4.414;2023-06-24T05:32:13;24.70;99.90
47618;DHT22;33336;36.728;-4.414;2023-06-24T05:37:20;25.00;99.90
47618;DHT22;33336;36.728;-4.414;2023-06-24T05:42:22;25.30;99.90
47618;DHT22;33336;36.728;-4.414;2023-06-24T05:47:27;25.50;99.90
47618;DHT22;33336;36.728;-4.414;2023-06-24T05:52:31;25.50;99.90
47618;DHT22;33336;36.728;-4.414;2023-06-24T05:57:35;25.50;99.90
47618;DHT22;33336;36.728;-4.414;2023-06-24T06:02:38;25.50;99.90
47618;DHT22;33336;36.728;-4.414;2023-06-24T06:07:43;25.10;99.90
47618;DHT22;33336;36.728;-4.414;2023-06-24T06:12:45;25.70;99.90
47618;DHT22;33336;36.728;-4.414;2023-06-24T06:17:48;25.90;99.90
47618;DHT22;33336;36.728;-4.414;2023-06-24T06:22:52;26.00;99.90
47618;DHT22;33336;36.728;-4.414;2023-06-24T06:27:55;25.60;99.90
47618;DHT22;33336;36.728;-4.414;2023-06-24T06:32:59;26.30;99.90
47618;DHT22;33336;36.728;-4.414;2023-06-24T06:38:04;26.10;99.90
47618;DHT22;33336;36.728;-4.414;2023-06-24T06:43:07;25.80;99.90
47618;DHT22;33336;36.728;-4.414;2023-06-24T06:48:11;25.80;99.90
47618;DHT22;33336;36.728;-4.414;2023-06-24T06:53:15;26.00;99.90
47618;DHT22;33336;36.728;-4.414;2023-06-24T06:58:18;26.30;99.90
47618;DHT22;33336;36.728;-4.414;2023-06-24T07:03:21;26.50;99.90
47618;DHT22;33336;36.728;-4.414;2023-06-24T07:08:26;26.30;99.90
47618;DHT22;33336;36.728;-4.414;2023-06-24T07:13:28;26.90;99.90
47618;DHT22;33336;36.728;-4.414;2023-06-24T07:18:31;26.80;99.90
47618;DHT22;33336;36.728;-4.414;2023-06-24T07:23:35;26.80;99.90
47618;DHT22;33336;36.728;-4.414;2023-06-24T07:28:39;27.10;99.90
47618;DHT22;33336;36.728;-4.414;2023-06-24T07:33:42;27.30;99.70
47618;DHT22;33336;36.728;-4.414;2023-06-24T07:38:47;27.60;99.50
47618;DHT22;33336;36.728;-4.414;2023-06-24T07:43:49;27.80;99.00
47618;DHT22;33336;36.728;-4.414;2023-06-24T07:48:53;27.70;97.90
47618;DHT22;33336;36.728;-4.414;2023-06-24T07:53:57;27.50;98.10
47618;DHT22;33336;36.728;-4.414;2023-06-24T07:59:01;27.70;97.60
47618;DHT22;33336;36.728;-4.414;2023-06-24T08:04:04;27.70;97.70
47618;DHT22;33336;36.728;-4.414;2023-06-24T08:09:08;27.90;97.70
47618;DHT22;33336;36.728;-4.414;2023-06-24T08:14:11;27.60;96.90
47618;DHT22;33336;36.728;-4.414;2023-06-24T08:19:14;27.00;97.50
47618;DHT22;33336;36.728;-4.414;2023-06-24T08:24:18;27.50;97.60
47618;DHT22;33336;36.728;-4.414;2023-06-24T08:29:22;27.30;98.10
47618;DHT22;33336;36.728;-4.414;2023-06-24T08:34:25;27.80;97.40
47618;DHT22;33336;36.728;-4.414;2023-06-24T08:39:29;27.80;96.80
47618;DHT22;33336;36.728;-4.414;2023-06-24T08:44:32;28.20;96.70
47618;DHT22;33336;36.728;-4.414;2023-06-24T08:49:42;28.30;96.30
47618;DHT22;33336;36.728;-4.414;2023-06-24T08:54:51;27.70;95.60
47618;DHT22;33336;36.728;-4.414;2023-06-24T08:59:55;27.80;96.40
47618;DHT22;33336;36.728;-4.414;2023-06-24T09:04:58;28.00;96.00
47618;DHT22;33336;36.728;-4.414;2023-06-24T09:10:03;28.50;95.60
47618;DHT22;33336;36.728;-4.414;2023-06-24T09:15:06;28.60;95.20
47618;DHT22;33336;36.728;-4.414;2023-06-24T09:20:11;28.80;94.80
47618;DHT22;33336;36.728;-4.414;2023-06-24T09:25:18;28.30;94.20
47618;DHT22;33336;36.728;-4.414;2023-06-24T09:30:22;28.90;94.00
47618;DHT22;33336;36.728;-4.414;2023-06-24T09:35:25;28.80;94.10
47618;DHT22;33336;36.728;-4.414;2023-06-24T09:40:35;29.30;93.90
47618;DHT22;33336;36.728;-4.414;2023-06-24T09:45:38;28.80;93.60
47618;DHT22;33336;36.728;-4.414;2023-06-24T09:50:42;28.80;93.50
47618;DHT22;33336;36.728;-4.414;2023-06-24T09:55:47;28.80;93.00
47618;DHT22;33336;36.728;-4.414;2023-06-24T10:00:52;29.10;93.60
47618;DHT22;33336;36.728;-4.414;2023-06-24T10:05:55;29.10;92.80
47618;DHT22;33336;36.728;-4.414;2023-06-24T10:11:00;28.90;92.90
47618;DHT22;33336;36.728;-4.414;2023-06-24T10:16:03;29.30;92.70
47618;DHT22;33336;36.728;-4.414;2023-06-24T10:21:07;29.40;92.60
47618;DHT22;33336;36.728;-4.414;2023-06-24T10:26:22;29.30;92.50
47618;DHT22;33336;36.728;-4.414;2023-06-24T10:31:51;29.60;92.30
47618;DHT22;33336;36.728;-4.414;2023-06-24T10:36:54;29.90;91.20
47618;DHT22;33336;36.728;-4.414;2023-06-24T10:42:25;29.10;91.50
47618;DHT22;33336;36.728;-4.414;2023-06-24T10:47:30;28.90;92.10
47618;DHT22;33336;36.728;-4.414;2023-06-24T10:52:36;29.10;92.20
47618;DHT22;33336;36.728;-4.414;2023-06-24T10:57:42;29.20;91.90
47618;DHT22;33336;36.728;-4.414;2023-06-24T11:02:44;29.20;91.90
47618;DHT22;33336;36.728;-4.414;2023-06-24T11:07:48;29.70;91.70
47618;DHT22;33336;36.728;-4.414;2023-06-24T11:12:53;30.10;91.30
47618;DHT22;33336;36.728;-4.414;2023-06-24T11:17:55;30.10;91.50
47618;DHT22;33336;36.728;-4.414;2023-06-24T11:22:58;30.80;90.40
47618;DHT22;33336;36.728;-4.414;2023-06-24T11:28:04;30.00;90.60
47618;DHT22;33336;36.728;-4.414;2023-06-24T11:33:06;30.20;90.70
47618;DHT22;33336;36.728;-4.414;2023-06-24T11:38:10;30.50;90.50
47618;DHT22;33336;36.728;-4.414;2023-06-24T11:43:14;30.80;90.10
47618;DHT22;33336;36.728;-4.414;2023-06-24T11:48:20;31.00;88.80
47618;DHT22;33336;36.728;-4.414;2023-06-24T11:53:29;31.10;89.80
47618;DHT22;33336;36.728;-4.414;2023-06-24T11:58:36;30.30;89.10
47618;DHT22;33336;36.728;-4.414;2023-06-24T12:03:40;30.90;89.00
47618;DHT22;33336;36.728;-4.414;2023-06-24T12:08:44;30.70;87.80
47618;DHT22;33336;36.728;-4.414;2023-06-24T12:13:48;30.90;87.40
47618;DHT22;33336;36.728;-4.414;2023-06-24T12:18:51;31.00;88.80
47618;DHT22;33336;36.728;-4.414;2023-06-24T12:23:54;31.60;88.10
47618;DHT22;33336;36.728;-4.414;2023-06-24T12:28:58;31.60;87.20
47618;DHT22;33336;36.728;-4.414;2023-06-24T12:34:01;31.70;86.20
47618;DHT22;33336;36.728;-4.414;2023-06-24T12:39:04;31.80;87.20
47618;DHT22;33336;36.728;-4.414;2023-06-24T12:44:08;32.60;86.80
47618;DHT22;33336;36.728;-4.414;2023-06-24T12:49:11;33.20;85.10
47618;DHT22;33336;36.728;-4.414;2023-06-24T12:54:14;32.30;84.60
47618;DHT22;33336;36.728;-4.414;2023-06-24T12:59:18;32.50;86.30
47618;DHT22;33336;36.728;-4.414;2023-06-24T13:04:21;32.50;85.30
47618;DHT22;33336;36.728;-4.414;2023-06-24T13:09:25;32.20;84.20
47618;DHT22;33336;36.728;-4.414;2023-06-24T13:14:29;32.60;84.60
47618;DHT22;33336;36.728;-4.414;2023-06-24T13:19:33;32.00;84.60
47618;DHT22;33336;36.728;-4.414;2023-06-24T13:24:36;32.90;83.60
47618;DHT22;33336;36.728;-4.414;2023-06-24T13:29:41;33.00;83.60
47618;DHT22;33336;36.728;-4.414;2023-06-24T13:34:44;33.50;83.50
47618;DHT22;33336;36.728;-4.414;2023-06-24T13:39:48;33.60;83.80
47618;DHT22;33336;36.728;-4.414;2023-06-24T13:44:55;33.90;81.50
47618;DHT22;33336;36.728;-4.414;2023-06-24T13:49:58;33.80;81.60
47618;DHT22;33336;36.728;-4.414;2023-06-24T13:55:01;33.70;82.50
47618;DHT22;33336;36.728;-4.414;2023-06-24T14:00:06;34.40;83.00
47618;DHT22;33336;36.728;-4.414;2023-06-24T14:05:10;34.10;80.70
47618;DHT22;33336;36.728;-4.414;2023-06-24T14:10:13;34.70;80.90
47618;DHT22;33336;36.728;-4.414;2023-06-24T14:15:17;33.80;81.40
47618;DHT22;33336;36.728;-4.414;2023-06-24T14:20:20;33.70;82.80
47618;DHT22;33336;36.728;-4.414;2023-06-24T14:25:24;34.20;80.90
47618;DHT22;33336;36.728;-4.414;2023-06-24T14:30:28;34.30;81.60
47618;DHT22;33336;36.728;-4.414;2023-06-24T14:35:31;33.10;81.10
47618;DHT22;33336;36.728;-4.414;2023-06-24T14:40:34;34.00;81.20
47618;DHT22;33336;36.728;-4.414;2023-06-24T14:45:38;34.40;81.40
47618;DHT22;33336;36.728;-4.414;2023-06-24T14:50:41;34.00;81.40
47618;DHT22;33336;36.728;-4.414;2023-06-24T14:55:45;35.40;80.90
47618;DHT22;33336;36.728;-4.414;2023-06-24T15:00:49;35.90;80.60
47618;DHT22;33336;36.728;-4.414;2023-06-24T15:05:52;35.90;80.10
47618;DHT22;33336;36.728;-4.414;2023-06-24T15:10:55;35.90;78.20
47618;DHT22;33336;36.728;-4.414;2023-06-24T15:15:59;35.50;78.00
47618;DHT22;33336;36.728;-4.414;2023-06-24T15:21:02;35.30;79.30
47618;DHT22;33336;36.728;-4.414;2023-06-24T15:26:06;35.60;79.10
47618;DHT22;33336;36.728;-4.414;2023-06-24T15:31:10;36.20;77.90
47618;DHT22;33336;36.728;-4.414;2023-06-24T15:36:14;36.40;78.10
47618;DHT22;33336;36.728;-4.414;2023-06-24T15:41:17;37.60;77.20
47618;DHT22;33336;36.728;-4.414;2023-06-24T15:46:21;37.00;77.80
47618;DHT22;33336;36.728;-4.414;2023-06-24T15:51:26;36.90;77.80
47618;DHT22;33336;36.728;-4.414;2023-06-24T15:56:30;38.10;76.40
47618;DHT22;33336;36.728;-4.414;2023-06-24T16:01:34;37.80;74.40
47618;DHT22;33336;36.728;-4.414;2023-06-24T16:06:37;37.90;73.10
47618;DHT22;33336;36.728;-4.414;2023-06-24T16:11:40;36.50;74.60
47618;DHT22;33336;36.728;-4.414;2023-06-24T16:16:44;35.50;76.20
47618;DHT22;33336;36.728;-4.414;2023-06-24T16:21:48;35.60;76.20
47618;DHT22;33336;36.728;-4.414;2023-06-24T16:26:51;36.20;76.70
47618;DHT22;33336;36.728;-4.414;2023-06-24T16:31:55;36.10;76.30
47618;DHT22;33336;36.728;-4.414;2023-06-24T16:36:58;35.40;76.50
47618;DHT22;33336;36.728;-4.414;2023-06-24T16:42:01;35.90;76.60
47618;DHT22;33336;36.728;-4.414;2023-06-24T16:47:05;35.40;77.20
47618;DHT22;33336;36.728;-4.414;2023-06-24T16:52:08;34.80;77.10
47618;DHT22;33336;36.728;-4.414;2023-06-24T16:57:11;36.10;77.40
47618;DHT22;33336;36.728;-4.414;2023-06-24T17:02:15;35.30;77.00
47618;DHT22;33336;36.728;-4.414;2023-06-24T17:07:19;35.00;78.00
47618;DHT22;33336;36.728;-4.414;2023-06-24T17:12:23;34.40;78.10
47618;DHT22;33336;36.728;-4.414;2023-06-24T17:17:28;34.10;78.90
47618;DHT22;33336;36.728;-4.414;2023-06-24T17:22:30;33.70;79.20
47618;DHT22;33336;36.728;-4.414;2023-06-24T17:27:34;33.70;79.20
47618;DHT22;33336;36.728;-4.414;2023-06-24T17:32:38;33.60;79.90
47618;DHT22;33336;36.728;-4.414;2023-06-24T17:37:42;33.50;79.60
47618;DHT22;33336;36.728;-4.414;2023-06-24T17:42:45;33.30;80.90
47618;DHT22;33336;36.728;-4.414;2023-06-24T17:47:49;33.40;80.40
47618;DHT22;33336;36.728;-4.414;2023-06-24T17:52:53;33.40;80.50
47618;DHT22;33336;36.728;-4.414;2023-06-24T17:57:57;33.00;80.80
47618;DHT22;33336;36.728;-4.414;2023-06-24T18:03:01;32.60;81.70
47618;DHT22;33336;36.728;-4.414;2023-06-24T18:08:04;33.00;81.50
47618;DHT22;33336;36.728;-4.414;2023-06-24T18:13:07;32.70;81.50
47618;DHT22;33336;36.728;-4.414;2023-06-24T18:18:11;32.20;81.80
47618;DHT22;33336;36.728;-4.414;2023-06-24T18:23:14;32.20;82.40
47618;DHT22;33336;36.728;-4.414;2023-06-24T18:28:18;31.90;82.80
47618;DHT22;33336;36.728;-4.414;2023-06-24T18:33:22;32.10;83.00
47618;DHT22;33336;36.728;-4.414;2023-06-24T18:38:26;31.90;83.10
47618;DHT22;33336;36.728;-4.414;2023-06-24T18:43:29;31.90;82.90
47618;DHT22;33336;36.728;-4.414;2023-06-24T18:48:33;31.80;83.40
47618;DHT22;33336;36.728;-4.414;2023-06-24T18:53:36;31.70;83.60
47618;DHT22;33336;36.728;-4.414;2023-06-24T18:58:40;32.30;83.10
47618;DHT22;33336;36.728;-4.414;2023-06-24T19:03:44;32.60;81.90
47618;DHT22;33336;36.728;-4.414;2023-06-24T19:08:47;32.50;81.80
47618;DHT22;33336;36.728;-4.414;2023-06-24T19:13:53;32.90;81.30
47618;DHT22;33336;36.728;-4.414;2023-06-24T19:18:57;32.20;81.50
47618;DHT22;33336;36.728;-4.414;2023-06-24T19:24:03;32.10;81.90
47618;DHT22;33336;36.728;-4.414;2023-06-24T19:29:07;32.00;81.80
47618;DHT22;33336;36.728;-4.414;2023-06-24T19:34:11;31.40;82.50
47618;DHT22;33336;36.728;-4.414;2023-06-24T19:39:14;31.20;83.00
47618;DHT22;33336;36.728;-4.414;2023-06-24T19:44:18;30.60;84.00
47618;DHT22;33336;36.728;-4.414;2023-06-24T19:49:22;30.90;84.00
47618;DHT22;33336;36.728;-4.414;2023-06-24T19:54:25;31.30;83.30
47618;DHT22;33336;36.728;-4.414;2023-06-24T19:59:28;31.00;83.90
47618;DHT22;33336;36.728;-4.414;2023-06-24T20:04:32;31.00;83.70
47618;DHT22;33336;36.728;-4.414;2023-06-24T20:09:35;30.70;84.10
47618;DHT22;33336;36.728;-4.414;2023-06-24T20:14:39;30.70;84.00
47618;DHT22;33336;36.728;-4.414;2023-06-24T20:19:43;30.90;84.00
47618;DHT22;33336;36.728;-4.414;2023-06-24T20:24:47;30.50;84.50
47618;DHT22;33336;36.728;-4.414;2023-06-24T20:29:50;30.50;84.20
47618;DHT22;33336;36.728;-4.414;2023-06-24T20:34:54;30.80;84.00
47618;DHT22;33336;36.728;-4.414;2023-06-24T20:39:57;30.50;84.30
47618;DHT22;33336;36.728;-4.414;2023-06-24T20:45:00;30.50;84.30
47618;DHT22;33336;36.728;-4.414;2023-06-24T20:50:05;30.50;84.20
47618;DHT22;33336;36.728;-4.414;2023-06-24T20:55:09;30.20;84.80
47618;DHT22;33336;36.728;-4.414;2023-06-24T21:00:13;30.30;84.80
47618;DHT22;33336;36.728;-4.414;2023-06-24T21:05:17;30.50;84.50
47618;DHT22;33336;36.728;-4.414;2023-06-24T21:10:20;30.20;85.10
47618;DHT22;33336;36.728;-4.414;2023-06-24T21:15:23;30.00;85.40
47618;DHT22;33336;36.728;-4.414;2023-06-24T21:20:27;30.20;85.20
47618;DHT22;33336;36.728;-4.414;2023-06-24T21:25:30;30.30;85.50
47618;DHT22;33336;36.728;-4.414;2023-06-24T21:30:33;30.30;85.70
47618;DHT22;33336;36.728;-4.414;2023-06-24T21:35:38;29.70;86.40
47618;DHT22;33336;36.728;-4.414;2023-06-24T21:40:42;29.80;86.30
47618;DHT22;33336;36.728;-4.414;2023-06-24T21:45:46;29.80;86.60
47618;DHT22;33336;36.728;-4.414;2023-06-24T21:50:50;29.50;86.80
47618;DHT22;33336;36.728;-4.414;2023-06-24T21:55:54;29.50;87.00
47618;DHT22;33336;36.728;-4.414;2023-06-24T22:00:57;29.30;87.10
47618;DHT22;33336;36.728;-4.414;2023-06-24T22:06:01;29.40;86.60
47618;DHT22;33336;36.728;-4.414;2023-06-24T22:11:03;29.80;86.20
47618;DHT22;33336;36.728;-4.414;2023-06-24T22:16:07;30.00;85.80
47618;DHT22;33336;36.728;-4.414;2023-06-24T22:21:13;29.70;85.40
47618;DHT22;33336;36.728;-4.414;2023-06-24T22:26:17;29.20;85.90
47618;DHT22;33336;36.728;-4.414;2023-06-24T22:31:20;29.30;86.40
47618;DHT22;33336;36.728;-4.414;2023-06-24T22:36:24;29.80;85.80
47618;DHT22;33336;36.728;-4.414;2023-06-24T22:41:27;29.70;85.60
47618;DHT22;33336;36.728;-4.414;2023-06-24T22:46:30;29.90;85.20
47618;DHT22;33336;36.728;-4.414;2023-06-24T22:51:34;29.80;85.20
47618;DHT22;33336;36.728;-4.414;2023-06-24T22:56:37;29.60;85.40
47618;DHT22;33336;36.728;-4.414;2023-06-24T23:01:40;29.70;85.50
47618;DHT22;33336;36.728;-4.414;2023-06-24T23:06:44;29.70;85.00
47618;DHT22;33336;36.728;-4.414;2023-06-24T23:11:49;29.60;85.20
47618;DHT22;33336;36.728;-4.414;2023-06-24T23:16:53;29.50;85.30
47618;DHT22;33336;36.728;-4.414;2023-06-24T23:21:58;29.50;85.50
47618;DHT22;33336;36.728;-4.414;2023-06-24T23:27:05;29.10;85.50
47618;DHT22;33336;36.728;-4.414;2023-06-24T23:32:10;29.30;85.50
47618;DHT22;33336;36.728;-4.414;2023-06-24T23:37:16;29.10;85.50
47618;DHT22;33336;36.728;-4.414;2023-06-24T23:42:19;28.30;86.70
47618;DHT22;33336;36.728;-4.414;2023-06-24T23:47:23;28.70;86.10
47618;DHT22;33336;36.728;-4.414;2023-06-24T23:52:27;28.60;86.10
47618;DHT22;33336;36.728;-4.414;2023-06-24T23:57:31;28.60;86.00
